sensor_id;sensor_type;location;lat;lon;timestamp;temperature;humidity
14884;DHT22;7534;50.762;7.000;2023-02-11T00:01:46;6.30;99.90
14884;DHT22;7534;50.762;7.000;2023-02-11T00:04:12;6.30;99.90
14884;DHT22;7534;50.762;7.000;2023-02-11T00:06:38;6.30;99.90
14884;DHT22;7534;50.762;7.000;2023-02-11T00:09:05;6.20;99.90
14884;DHT22;7534;50.762;7.000;2023-02-11T00:11:31;6.10;99.90
14884;DHT22;7534;50.762;7.000;2023-02-11T00:13:59;6.10;99.90
14884;DHT22;7534;50.762;7.000;2023-02-11T00:16:27;5.90;99.90
14884;DHT22;7534;50.762;7.000;2023-02-11T00:18:54;5.70;99.90
14884;DHT22;7534;50.762;7.000;2023-02-11T00:21:22;5.70;99.90
14884;DHT22;7534;50.762;7.000;2023-02-11T00:23:49;5.70;99.90
14884;DHT22;7534;50.762;7.000;2023-02-11T00:26:22;5.70;99.90
14884;DHT22;7534;50.762;7.000;2023-02-11T00:28:50;5.80;99.90
14884;DHT22;7534;50.762;7.000;2023-02-11T00:31:18;5.80;99.90
14884;DHT22;7534;50.762;7.000;2023-02-11T00:33:45;5.80;99.90
14884;DHT22;7534;50.762;7.000;2023-02-11T00:36:14;5.80;99.90
14884;DHT22;7534;50.762;7.000;2023-02-11T00:38:42;5.80;99.90
14884;DHT22;7534;50.762;7.000;2023-02-11T00:41:12;5.60;99.90
14884;DHT22;7534;50.762;7.000;2023-02-11T00:43:42;5.80;99.90
14884;DHT22;7534;50.762;7.000;2023-02-11T00:46:09;5.70;99.90
14884;DHT22;7534;50.762;7.000;2023-02-11T00:48:48;5.60;99.90
14884;DHT22;7534;50.762;7.000;2023-02-11T00:51:16;5.60;99.90
14884;DHT22;7534;50.762;7.000;2023-02-11T00:53:42;5.50;99.90
14884;DHT22;7534;50.762;7.000;2023-02-11T00:56:08;5.50;99.90
14884;DHT22;7534;50.762;7.000;2023-02-11T00:58:35;5.40;99.90
14884;DHT22;7534;50.762;7.000;2023-02-11T01:01:01;5.30;99.90
14884;DHT22;7534;50.762;7.000;2023-02-11T01:03:27;5.20;99.90
14884;DHT22;7534;50.762;7.000;2023-02-11T01:05:53;5.10;99.90
14884;DHT22;7534;50.762;7.000;2023-02-11T01:08:19;5.00;99.90
14884;DHT22;7534;50.762;7.000;2023-02-11T01:11:02;4.90;99.90
14884;DHT22;7534;50.762;7.000;2023-02-11T01:13:31;4.60;99.90
14884;DHT22;7534;50.762;7.000;2023-02-11T01:15:59;4.50;99.90
14884;DHT22;7534;50.762;7.000;2023-02-11T01:18:25;4.50;99.90
14884;DHT22;7534;50.762;7.000;2023-02-11T01:20:52;4.20;99.90
14884;DHT22;7534;50.762;7.000;2023-02-11T01:23:18;4.40;99.90
14884;DHT22;7534;50.762;7.000;2023-02-11T01:25:44;4.50;99.90
14884;DHT22;7534;50.762;7.000;2023-02-11T01:28:17;4.60;99.90
14884;DHT22;7534;50.762;7.000;2023-02-11T01:30:44;4.70;99.90
14884;DHT22;7534;50.762;7.000;2023-02-11T01:33:09;4.60;99.90
14884;DHT22;7534;50.762;7.000;2023-02-11T01:35:40;4.50;99.90
14884;DHT22;7534;50.762;7.000;2023-02-11T01:38:07;4.40;99.90
14884;DHT22;7534;50.762;7.000;2023-02-11T01:40:39;4.30;99.90
14884;DHT22;7534;50.762;7.000;2023-02-11T01:43:04;4.30;99.90
14884;DHT22;7534;50.762;7.000;2023-02-11T01:45:52;4.20;99.90
14884;DHT22;7534;50.762;7.000;2023-02-11T01:48:24;4.20;99.90
14884;DHT22;7534;50.762;7.000;2023-02-11T01:51:42;4.30;99.90
14884;DHT22;7534;50.762;7.000;2023-02-11T01:54:06;4.20;99.90
14884;DHT22;7534;50.762;7.000;2023-02-11T01:56:56;4.20;99.90
14884;DHT22;7534;50.762;7.000;2023-02-11T02:02:45;4.10;99.90
14884;DHT22;7534;50.762;7.000;2023-02-11T02:08:28;4.00;99.90
14884;DHT22;7534;50.762;7.000;2023-02-11T02:10:59;4.00;99.90
14884;DHT22;7534;50.762;7.000;2023-02-11T02:13:27;4.00;99.90
14884;DHT22;7534;50.762;7.000;2023-02-11T02:15:59;4.00;99.90
14884;DHT22;7534;50.762;7.000;2023-02-11T02:28:23;4.00;99.90
14884;DHT22;7534;50.762;7.000;2023-02-11T02:34:28;4.20;99.90
14884;DHT22;7534;50.762;7.000;2023-02-11T02:40:05;4.30;99.90
14884;DHT22;7534;50.762;7.000;2023-02-11T02:42:37;4.30;99.90
14884;DHT22;7534;50.762;7.000;2023-02-11T02:45:06;4.30;99.90
14884;DHT22;7534;50.762;7.000;2023-02-11T02:47:34;4.20;99.90
14884;DHT22;7534;50.762;7.000;2023-02-11T02:50:00;4.20;99.90
14884;DHT22;7534;50.762;7.000;2023-02-11T02:56:08;4.10;99.90
14884;DHT22;7534;50.762;7.000;2023-02-11T03:06:14;3.80;99.90
14884;DHT22;7534;50.762;7.000;2023-02-11T03:08:58;3.80;99.90
14884;DHT22;7534;50.762;7.000;2023-02-11T03:11:30;3.70;99.90
14884;DHT22;7534;50.762;7.000;2023-02-11T03:13:59;3.50;99.90
14884;DHT22;7534;50.762;7.000;2023-02-11T03:16:29;3.40;99.90
14884;DHT22;7534;50.762;7.000;2023-02-11T03:19:07;3.40;99.90
14884;DHT22;7534;50.762;7.000;2023-02-11T03:21:38;3.30;99.90
14884;DHT22;7534;50.762;7.000;2023-02-11T03:24:15;3.30;99.90
14884;DHT22;7534;50.762;7.000;2023-02-11T03:26:50;3.30;99.90
14884;DHT22;7534;50.762;7.000;2023-02-11T03:29:36;3.20;99.90
14884;DHT22;7534;50.762;7.000;2023-02-11T03:32:11;3.10;99.90
14884;DHT22;7534;50.762;7.000;2023-02-11T03:37:38;2.90;99.90
14884;DHT22;7534;50.762;7.000;2023-02-11T03:40:12;2.90;99.90
14884;DHT22;7534;50.762;7.000;2023-02-11T03:42:57;2.90;99.90
14884;DHT22;7534;50.762;7.000;2023-02-11T03:45:26;2.90;99.90
14884;DHT22;7534;50.762;7.000;2023-02-11T03:48:21;2.90;99.90
14884;DHT22;7534;50.762;7.000;2023-02-11T03:50:51;3.00;99.90
14884;DHT22;7534;50.762;7.000;2023-02-11T03:53:20;3.10;99.90
14884;DHT22;7534;50.762;7.000;2023-02-11T03:55:49;3.20;99.90
14884;DHT22;7534;50.762;7.000;2023-02-11T03:58:18;3.30;99.90
14884;DHT22;7534;50.762;7.000;2023-02-11T04:00:44;3.30;99.90
14884;DHT22;7534;50.762;7.000;2023-02-11T04:03:11;3.30;99.90
14884;DHT22;7534;50.762;7.000;2023-02-11T04:05:37;3.40;99.90
14884;DHT22;7534;50.762;7.000;2023-02-11T04:08:04;3.40;99.90
14884;DHT22;7534;50.762;7.000;2023-02-11T04:10:30;3.30;99.90
14884;DHT22;7534;50.762;7.000;2023-02-11T04:12:55;3.30;99.90
14884;DHT22;7534;50.762;7.000;2023-02-11T04:15:21;3.50;99.90
14884;DHT22;7534;50.762;7.000;2023-02-11T04:17:47;3.60;99.90
14884;DHT22;7534;50.762;7.000;2023-02-11T04:20:13;3.60;99.90
14884;DHT22;7534;50.762;7.000;2023-02-11T04:22:39;3.60;99.90
14884;DHT22;7534;50.762;7.000;2023-02-11T04:25:06;3.60;99.90
14884;DHT22;7534;50.762;7.000;2023-02-11T04:27:32;3.60;99.90
14884;DHT22;7534;50.762;7.000;2023-02-11T04:29:58;3.80;99.90
14884;DHT22;7534;50.762;7.000;2023-02-11T04:32:23;3.90;99.90
14884;DHT22;7534;50.762;7.000;2023-02-11T04:34:49;3.90;99.90
14884;DHT22;7534;50.762;7.000;2023-02-11T04:37:15;4.00;99.90
14884;DHT22;7534;50.762;7.000;2023-02-11T04:39:40;4.10;99.90
14884;DHT22;7534;50.762;7.000;2023-02-11T04:42:06;4.10;99.90
14884;DHT22;7534;50.762;7.000;2023-02-11T04:44:32;4.20;99.90
14884;DHT22;7534;50.762;7.000;2023-02-11T04:46:58;4.30;99.90
14884;DHT22;7534;50.762;7.000;2023-02-11T04:49:23;4.30;99.90
14884;DHT22;7534;50.762;7.000;2023-02-11T04:51:51;4.40;99.90
14884;DHT22;7534;50.762;7.000;2023-02-11T04:54:17;4.50;99.90
14884;DHT22;7534;50.762;7.000;2023-02-11T04:56:43;4.50;99.90
14884;DHT22;7534;50.762;7.000;2023-02-11T04:59:09;4.30;99.90
14884;DHT22;7534;50.762;7.000;2023-02-11T05:01:37;4.40;99.90
14884;DHT22;7534;50.762;7.000;2023-02-11T05:04:04;4.60;99.90
14884;DHT22;7534;50.762;7.000;2023-02-11T05:06:29;4.80;99.90
14884;DHT22;7534;50.762;7.000;2023-02-11T05:08:55;4.90;99.90
14884;DHT22;7534;50.762;7.000;2023-02-11T05:11:22;5.00;99.90
14884;DHT22;7534;50.762;7.000;2023-02-11T05:13:49;4.90;99.90
14884;DHT22;7534;50.762;7.000;2023-02-11T05:16:16;4.80;99.90
14884;DHT22;7534;50.762;7.000;2023-02-11T05:18:43;4.80;99.90
14884;DHT22;7534;50.762;7.000;2023-02-11T05:21:12;4.90;99.90
14884;DHT22;7534;50.762;7.000;2023-02-11T05:23:39;4.90;99.90
14884;DHT22;7534;50.762;7.000;2023-02-11T05:26:06;4.90;99.90
14884;DHT22;7534;50.762;7.000;2023-02-11T05:28:32;4.90;99.90
14884;DHT22;7534;50.762;7.000;2023-02-11T05:30:58;4.90;99.90
14884;DHT22;7534;50.762;7.000;2023-02-11T05:33:24;5.20;99.90
14884;DHT22;7534;50.762;7.000;2023-02-11T05:35:51;5.20;99.90
14884;DHT22;7534;50.762;7.000;2023-02-11T05:38:23;5.20;99.90
14884;DHT22;7534;50.762;7.000;2023-02-11T05:40:48;5.30;99.90
14884;DHT22;7534;50.762;7.000;2023-02-11T05:43:14;5.40;99.90
14884;DHT22;7534;50.762;7.000;2023-02-11T05:45:40;5.40;99.90
14884;DHT22;7534;50.762;7.000;2023-02-11T05:48:05;5.70;99.90
14884;DHT22;7534;50.762;7.000;2023-02-11T05:50:31;5.60;99.90
14884;DHT22;7534;50.762;7.000;2023-02-11T05:52:57;5.60;99.90
14884;DHT22;7534;50.762;7.000;2023-02-11T05:55:22;5.50;99.90
14884;DHT22;7534;50.762;7.000;2023-02-11T05:57:48;5.30;99.90
14884;DHT22;7534;50.762;7.000;2023-02-11T06:00:14;5.40;99.90
14884;DHT22;7534;50.762;7.000;2023-02-11T06:02:40;5.30;99.90
14884;DHT22;7534;50.762;7.000;2023-02-11T06:05:06;5.50;99.90
14884;DHT22;7534;50.762;7.000;2023-02-11T06:07:32;5.50;99.90
14884;DHT22;7534;50.762;7.000;2023-02-11T06:09:58;5.70;99.90
14884;DHT22;7534;50.762;7.000;2023-02-11T06:12:24;5.80;99.90
14884;DHT22;7534;50.762;7.000;2023-02-11T06:14:50;5.90;99.90
14884;DHT22;7534;50.762;7.000;2023-02-11T06:17:15;5.90;99.90
14884;DHT22;7534;50.762;7.000;2023-02-11T06:19:41;5.90;99.90
14884;DHT22;7534;50.762;7.000;2023-02-11T06:22:07;6.00;99.90
14884;DHT22;7534;50.762;7.000;2023-02-11T06:24:32;6.10;99.90
14884;DHT22;7534;50.762;7.000;2023-02-11T06:26:58;6.10;99.90
14884;DHT22;7534;50.762;7.000;2023-02-11T06:29:24;6.10;99.90
14884;DHT22;7534;50.762;7.000;2023-02-11T06:31:49;6.20;99.90
14884;DHT22;7534;50.762;7.000;2023-02-11T06:34:15;6.20;99.90
14884;DHT22;7534;50.762;7.000;2023-02-11T06:36:41;6.20;99.90
14884;DHT22;7534;50.762;7.000;2023-02-11T06:39:09;6.20;99.90
14884;DHT22;7534;50.762;7.000;2023-02-11T06:41:36;6.20;99.90
14884;DHT22;7534;50.762;7.000;2023-02-11T06:44:02;6.20;99.90
14884;DHT22;7534;50.762;7.000;2023-02-11T06:46:28;6.30;99.90
14884;DHT22;7534;50.762;7.000;2023-02-11T06:48:54;6.30;99.90
14884;DHT22;7534;50.762;7.000;2023-02-11T06:51:19;6.30;99.90
14884;DHT22;7534;50.762;7.000;2023-02-11T06:53:46;6.30;99.90
14884;DHT22;7534;50.762;7.000;2023-02-11T06:56:18;6.30;99.90
14884;DHT22;7534;50.762;7.000;2023-02-11T06:58:51;6.30;99.90
14884;DHT22;7534;50.762;7.000;2023-02-11T07:01:20;6.40;99.90
14884;DHT22;7534;50.762;7.000;2023-02-11T07:03:47;6.40;99.90
14884;DHT22;7534;50.762;7.000;2023-02-11T07:06:20;6.30;99.90
14884;DHT22;7534;50.762;7.000;2023-02-11T07:08:49;6.30;99.90
14884;DHT22;7534;50.762;7.000;2023-02-11T07:11:20;6.40;99.90
14884;DHT22;7534;50.762;7.000;2023-02-11T07:13:52;6.40;99.90
14884;DHT22;7534;50.762;7.000;2023-02-11T07:16:20;6.30;99.90
14884;DHT22;7534;50.762;7.000;2023-02-11T07:18:47;6.20;99.90
14884;DHT22;7534;50.762;7.000;2023-02-11T07:21:15;6.30;99.90
14884;DHT22;7534;50.762;7.000;2023-02-11T07:23:44;6.30;99.90
14884;DHT22;7534;50.762;7.000;2023-02-11T07:26:12;6.10;99.90
14884;DHT22;7534;50.762;7.000;2023-02-11T07:28:40;6.10;99.90
14884;DHT22;7534;50.762;7.000;2023-02-11T07:31:10;6.00;99.90
14884;DHT22;7534;50.762;7.000;2023-02-11T07:33:37;6.10;99.90
14884;DHT22;7534;50.762;7.000;2023-02-11T07:36:04;6.20;99.90
14884;DHT22;7534;50.762;7.000;2023-02-11T07:38:33;6.40;99.90
14884;DHT22;7534;50.762;7.000;2023-02-11T07:41:06;6.60;99.90
14884;DHT22;7534;50.762;7.000;2023-02-11T07:43:40;6.70;99.90
14884;DHT22;7534;50.762;7.000;2023-02-11T07:46:10;6.70;99.90
14884;DHT22;7534;50.762;7.000;2023-02-11T07:48:38;6.70;99.90
14884;DHT22;7534;50.762;7.000;2023-02-11T07:51:30;6.80;99.90
14884;DHT22;7534;50.762;7.000;2023-02-11T07:53:58;6.80;99.90
14884;DHT22;7534;50.762;7.000;2023-02-11T07:56:25;6.90;99.90
14884;DHT22;7534;50.762;7.000;2023-02-11T07:59:02;6.90;99.90
14884;DHT22;7534;50.762;7.000;2023-02-11T08:01:31;7.00;99.90
14884;DHT22;7534;50.762;7.000;2023-02-11T08:03:59;7.10;99.90
14884;DHT22;7534;50.762;7.000;2023-02-11T08:06:29;7.10;99.90
14884;DHT22;7534;50.762;7.000;2023-02-11T08:09:06;7.10;99.90
14884;DHT22;7534;50.762;7.000;2023-02-11T08:11:35;7.10;99.90
14884;DHT22;7534;50.762;7.000;2023-02-11T08:14:01;7.20;99.90
14884;DHT22;7534;50.762;7.000;2023-02-11T08:16:30;7.20;99.90
14884;DHT22;7534;50.762;7.000;2023-02-11T08:19:12;7.30;99.90
14884;DHT22;7534;50.762;7.000;2023-02-11T08:21:40;7.30;99.90
14884;DHT22;7534;50.762;7.000;2023-02-11T08:24:06;7.40;99.90
14884;DHT22;7534;50.762;7.000;2023-02-11T08:26:33;7.40;99.90
14884;DHT22;7534;50.762;7.000;2023-02-11T08:29:02;7.40;99.90
14884;DHT22;7534;50.762;7.000;2023-02-11T08:31:36;7.60;99.90
14884;DHT22;7534;50.762;7.000;2023-02-11T08:34:03;7.50;99.90
14884;DHT22;7534;50.762;7.000;2023-02-11T08:36:32;7.50;99.90
14884;DHT22;7534;50.762;7.000;2023-02-11T08:39:03;7.70;99.90
14884;DHT22;7534;50.762;7.000;2023-02-11T08:41:32;7.70;99.90
14884;DHT22;7534;50.762;7.000;2023-02-11T08:43:58;7.70;99.90
14884;DHT22;7534;50.762;7.000;2023-02-11T08:46:25;7.70;99.90
14884;DHT22;7534;50.762;7.000;2023-02-11T08:48:55;7.70;99.90
14884;DHT22;7534;50.762;7.000;2023-02-11T08:51:25;7.90;99.90
14884;DHT22;7534;50.762;7.000;2023-02-11T08:54:01;7.80;99.90
14884;DHT22;7534;50.762;7.000;2023-02-11T08:56:37;7.80;99.90
14884;DHT22;7534;50.762;7.000;2023-02-11T08:59:12;7.80;99.90
14884;DHT22;7534;50.762;7.000;2023-02-11T09:01:52;7.90;99.90
14884;DHT22;7534;50.762;7.000;2023-02-11T09:19:18;8.20;99.90
14884;DHT22;7534;50.762;7.000;2023-02-11T09:22:07;8.40;99.90
14884;DHT22;7534;50.762;7.000;2023-02-11T09:24:37;8.40;99.90
14884;DHT22;7534;50.762;7.000;2023-02-11T09:27:06;8.50;99.90
14884;DHT22;7534;50.762;7.000;2023-02-11T09:29:31;8.60;99.90
14884;DHT22;7534;50.762;7.000;2023-02-11T09:32:00;8.50;99.90
14884;DHT22;7534;50.762;7.000;2023-02-11T09:34:26;8.50;99.90
14884;DHT22;7534;50.762;7.000;2023-02-11T09:37:01;8.60;99.90
14884;DHT22;7534;50.762;7.000;2023-02-11T09:39:52;8.60;99.90
14884;DHT22;7534;50.762;7.000;2023-02-11T10:22:49;9.90;99.90
14884;DHT22;7534;50.762;7.000;2023-02-11T10:59:59;10.20;99.90
14884;DHT22;7534;50.762;7.000;2023-02-11T11:37:08;10.30;99.90
14884;DHT22;7534;50.762;7.000;2023-02-11T12:07:59;10.40;99.90
14884;DHT22;7534;50.762;7.000;2023-02-11T13:08:07;9.90;99.90
14884;DHT22;7534;50.762;7.000;2023-02-11T13:12:01;9.90;99.90
14884;DHT22;7534;50.762;7.000;2023-02-11T13:15:24;9.90;99.90
14884;DHT22;7534;50.762;7.000;2023-02-11T13:39:14;9.90;99.90
